Decoded Metar for KBWG (BOWLING GREE in KY, USA) (IATA:BWG) | Meteo·Mobile Aviation Weather
aviador You're here:

KBWG Decoded Metar

BOWLING GREE in KY, USA
Report Time2018-10-19 19:53:00
UTC Time2018-10-19 20:41:43
Flight Rules vfr VFR
Wind230° at 10 kt
W.Decomp.*RWY 21: 9.3 kt HW 3.7 kt RCW
RWY 30: 3.7 kt HW 9.3 kt LCW
W.Rank230° ranks 6
Current wind is above 230° avg. (7.4)
Visibility9999 m
Phenomena:N/A
Clouds:N/A
Expected CloudBase > 6,400 ft AGL from Temp-Dew spread
CeilingNone
Temp22°C (ISA +8)
Dew Point06°C (36% RH)
AAT17.5°C
QNH1020 hPa
Density Alt1,388 ft
Elevation551 ft
Report Wrong Elevation
Raw Report
METAR KBWG 191953Z AUTO 23010KT 10SM CLR 22/06 A3011 RMK AO2 SLP196
T02170056=

Extra information for KBWG:More info

Metar Taf Metar & Taf Last 4 Metars F.Rules Stats Wind Profile Meteogram Temp Stats Airport Information Weather charts Add Link Nearby VenuesMetar ALERT Operation Metar Decoded Social comments

AIRNAV info for KBWG